sensor_id;sensor_type;location;lat;lon;timestamp;pressure;altitude;pressure_sealevel;temperature;humidity
54262;BME280;40174;52.364;6.452;2024-01-27T00:00:50;103053.50;;;2.17;100.00
54262;BME280;40174;52.364;6.452;2024-01-27T00:03:17;103058.72;;;2.15;100.00
54262;BME280;40174;52.364;6.452;2024-01-27T00:05:43;103060.47;;;2.18;100.00
54262;BME280;40174;52.364;6.452;2024-01-27T00:08:10;103067.44;;;2.16;100.00
54262;BME280;40174;52.364;6.452;2024-01-27T00:10:37;103057.84;;;2.16;100.00
54262;BME280;40174;52.364;6.452;2024-01-27T00:13:03;103061.31;;;2.17;100.00
54262;BME280;40174;52.364;6.452;2024-01-27T00:15:31;103062.28;;;2.10;100.00
54262;BME280;40174;52.364;6.452;2024-01-27T00:17:58;103061.41;;;2.06;100.00
54262;BME280;40174;52.364;6.452;2024-01-27T00:20:26;103060.50;;;2.10;100.00
54262;BME280;40174;52.364;6.452;2024-01-27T00:22:52;103066.53;;;2.17;100.00
54262;BME280;40174;52.364;6.452;2024-01-27T00:25:19;103066.63;;;2.09;100.00
54262;BME280;40174;52.364;6.452;2024-01-27T00:27:45;103065.72;;;2.13;100.00
54262;BME280;40174;52.364;6.452;2024-01-27T00:30:12;103058.75;;;2.14;100.00
54262;BME280;40174;52.364;6.452;2024-01-27T00:32:40;103061.41;;;2.07;100.00
54262;BME280;40174;52.364;6.452;2024-01-27T00:35:07;103068.38;;;2.05;100.00
54262;BME280;40174;52.364;6.452;2024-01-27T00:37:34;103067.50;;;2.08;100.00
54262;BME280;40174;52.364;6.452;2024-01-27T00:40:01;103073.56;;;2.12;100.00
54262;BME280;40174;52.364;6.452;2024-01-27T00:42:28;103070.13;;;2.05;100.00
54262;BME280;40174;52.364;6.452;2024-01-27T00:44:55;103069.28;;;2.04;100.00
54262;BME280;40174;52.364;6.452;2024-01-27T00:47:21;103074.47;;;2.09;100.00
54262;BME280;40174;52.364;6.452;2024-01-27T00:49:49;103079.69;;;2.06;100.00
54262;BME280;40174;52.364;6.452;2024-01-27T00:52:16;103078.84;;;2.02;100.00
54262;BME280;40174;52.364;6.452;2024-01-27T00:54:42;103084.09;;;1.99;100.00
54262;BME280;40174;52.364;6.452;2024-01-27T00:57:09;103087.53;;;2.03;100.00
54262;BME280;40174;52.364;6.452;2024-01-27T00:59:36;103082.41;;;1.94;100.00
54262;BME280;40174;52.364;6.452;2024-01-27T01:02:03;103086.72;;;1.95;100.00
54262;BME280;40174;52.364;6.452;2024-01-27T01:04:30;103091.94;;;1.96;100.00
54262;BME280;40174;52.364;6.452;2024-01-27T01:06:58;103094.50;;;2.01;100.00
54262;BME280;40174;52.364;6.452;2024-01-27T01:09:25;103084.09;;;1.99;100.00
54262;BME280;40174;52.364;6.452;2024-01-27T01:11:51;103084.13;;;1.96;100.00
54262;BME280;40174;52.364;6.452;2024-01-27T01:14:19;103090.22;;;1.94;100.00
54262;BME280;40174;52.364;6.452;2024-01-27T01:16:44;103082.41;;;1.94;100.00
54262;BME280;40174;52.364;6.452;2024-01-27T01:19:11;103072.88;;;1.91;100.00
54262;BME280;40174;52.364;6.452;2024-01-27T01:21:38;103084.97;;;1.98;100.00
54262;BME280;40174;52.364;6.452;2024-01-27T01:24:06;103079.78;;;1.95;100.00
54262;BME280;40174;52.364;6.452;2024-01-27T01:26:35;103077.19;;;1.92;100.00
54262;BME280;40174;52.364;6.452;2024-01-27T01:29:01;103081.53;;;1.93;100.00
54262;BME280;40174;52.364;6.452;2024-01-27T01:31:28;103084.16;;;1.92;100.00
54262;BME280;40174;52.364;6.452;2024-01-27T01:33:54;103078.94;;;1.92;100.00
54262;BME280;40174;52.364;6.452;2024-01-27T01:36:21;103086.78;;;1.90;100.00
54262;BME280;40174;52.364;6.452;2024-01-27T01:38:48;103098.03;;;1.97;100.00
54262;BME280;40174;52.364;6.452;2024-01-27T01:41:16;103093.78;;;1.86;100.00
54262;BME280;40174;52.364;6.452;2024-01-27T01:43:43;103096.34;;;1.91;100.00
54262;BME280;40174;52.364;6.452;2024-01-27T01:46:09;103092.88;;;1.89;100.00
54262;BME280;40174;52.364;6.452;2024-01-27T01:48:36;103096.34;;;1.90;100.00
54262;BME280;40174;52.364;6.452;2024-01-27T01:51:03;103102.38;;;1.95;100.00
54262;BME280;40174;52.364;6.452;2024-01-27T01:53:30;103091.13;;;1.90;100.00
54262;BME280;40174;52.364;6.452;2024-01-27T01:55:57;103087.66;;;1.86;100.00
54262;BME280;40174;52.364;6.452;2024-01-27T01:58:25;103095.53;;;1.81;100.00
54262;BME280;40174;52.364;6.452;2024-01-27T02:00:59;103103.34;;;1.83;100.00
54262;BME280;40174;52.364;6.452;2024-01-27T02:03:26;103101.59;;;1.86;100.00
54262;BME280;40174;52.364;6.452;2024-01-27T02:05:53;103104.16;;;1.88;100.00
54262;BME280;40174;52.364;6.452;2024-01-27T02:08:19;103112.03;;;1.83;100.00
54262;BME280;40174;52.364;6.452;2024-01-27T02:10:46;103100.75;;;1.83;100.00
54262;BME280;40174;52.364;6.452;2024-01-27T02:13:19;103111.16;;;1.83;100.00
54262;BME280;40174;52.364;6.452;2024-01-27T02:15:49;103110.31;;;1.81;100.00
54262;BME280;40174;52.364;6.452;2024-01-27T02:18:16;103114.69;;;1.80;100.00
54262;BME280;40174;52.364;6.452;2024-01-27T02:20:43;103109.41;;;1.83;100.00
54262;BME280;40174;52.364;6.452;2024-01-27T02:23:10;103112.06;;;1.82;100.00
54262;BME280;40174;52.364;6.452;2024-01-27T02:25:38;103110.34;;;1.76;100.00
54262;BME280;40174;52.364;6.452;2024-01-27T02:28:05;103119.06;;;1.75;100.00
54262;BME280;40174;52.364;6.452;2024-01-27T02:30:32;103108.59;;;1.77;100.00
54262;BME280;40174;52.364;6.452;2024-01-27T02:32:58;103099.91;;;1.78;100.00
54262;BME280;40174;52.364;6.452;2024-01-27T02:35:26;103110.31;;;1.84;100.00
54262;BME280;40174;52.364;6.452;2024-01-27T02:37:52;103109.47;;;1.79;100.00
54262;BME280;40174;52.364;6.452;2024-01-27T02:40:19;103097.34;;;1.73;100.00
54262;BME280;40174;52.364;6.452;2024-01-27T02:42:47;103100.00;;;1.69;100.00
54262;BME280;40174;52.364;6.452;2024-01-27T02:45:13;103099.13;;;1.66;100.00
54262;BME280;40174;52.364;6.452;2024-01-27T02:47:40;103093.03;;;1.67;100.00
54262;BME280;40174;52.364;6.452;2024-01-27T02:50:07;103086.94;;;1.69;100.00
54262;BME280;40174;52.364;6.452;2024-01-27T02:52:34;103089.59;;;1.64;100.00
54262;BME280;40174;52.364;6.452;2024-01-27T02:55:01;103088.69;;;1.66;100.00
54262;BME280;40174;52.364;6.452;2024-01-27T02:57:27;103092.13;;;1.70;100.00
54262;BME280;40174;52.364;6.452;2024-01-27T02:59:55;103099.09;;;1.71;100.00
54262;BME280;40174;52.364;6.452;2024-01-27T03:02:22;103094.78;;;1.69;100.00
54262;BME280;40174;52.364;6.452;2024-01-27T03:04:49;103098.25;;;1.71;100.00
54262;BME280;40174;52.364;6.452;2024-01-27T03:07:15;103102.59;;;1.69;100.00
54262;BME280;40174;52.364;6.452;2024-01-27T03:09:42;103097.38;;;1.69;100.00
54262;BME280;40174;52.364;6.452;2024-01-27T03:12:09;103101.75;;;1.66;100.00
54262;BME280;40174;52.364;6.452;2024-01-27T03:14:35;103104.38;;;1.62;100.00
54262;BME280;40174;52.364;6.452;2024-01-27T03:17:03;103104.34;;;1.63;100.00
54262;BME280;40174;52.364;6.452;2024-01-27T03:19:30;103100.88;;;1.63;100.00
54262;BME280;40174;52.364;6.452;2024-01-27T03:21:56;103101.78;;;1.60;100.00
54262;BME280;40174;52.364;6.452;2024-01-27T03:24:23;103104.38;;;1.59;100.00
54262;BME280;40174;52.364;6.452;2024-01-27T03:26:50;103100.91;;;1.58;100.00
54262;BME280;40174;52.364;6.452;2024-01-27T03:29:16;103102.63;;;1.61;100.00
54262;BME280;40174;52.364;6.452;2024-01-27T03:31:43;103093.97;;;1.56;100.00
54262;BME280;40174;52.364;6.452;2024-01-27T03:34:11;103096.56;;;1.60;100.00
54262;BME280;40174;52.364;6.452;2024-01-27T03:36:37;103100.94;;;1.55;100.00
54262;BME280;40174;52.364;6.452;2024-01-27T03:39:05;103104.44;;;1.53;100.00
54262;BME280;40174;52.364;6.452;2024-01-27T03:41:33;103108.75;;;1.52;100.00
54262;BME280;40174;52.364;6.452;2024-01-27T03:43:59;103100.06;;;1.58;100.00
54262;BME280;40174;52.364;6.452;2024-01-27T03:46:26;103110.47;;;1.56;100.00
54262;BME280;40174;52.364;6.452;2024-01-27T03:48:53;103113.97;;;1.52;100.00
54262;BME280;40174;52.364;6.452;2024-01-27T03:51:21;103105.28;;;1.50;100.00
54262;BME280;40174;52.364;6.452;2024-01-27T03:53:48;103118.31;;;1.52;100.00
54262;BME280;40174;52.364;6.452;2024-01-27T03:56:15;103115.72;;;1.55;100.00
54262;BME280;40174;52.364;6.452;2024-01-27T03:58:41;103106.16;;;1.52;100.00
54262;BME280;40174;52.364;6.452;2024-01-27T04:01:08;103119.25;;;1.43;100.00
54262;BME280;40174;52.364;6.452;2024-01-27T04:03:34;103111.41;;;1.49;100.00
54262;BME280;40174;52.364;6.452;2024-01-27T04:06:01;103116.59;;;1.49;100.00
54262;BME280;40174;52.364;6.452;2024-01-27T04:08:30;103120.03;;;1.62;100.00
54262;BME280;40174;52.364;6.452;2024-01-27T04:10:57;103129.56;;;1.61;100.00
54262;BME280;40174;52.364;6.452;2024-01-27T04:13:23;103119.13;;;1.63;100.00
54262;BME280;40174;52.364;6.452;2024-01-27T04:15:50;103121.75;;;1.60;100.00
54262;BME280;40174;52.364;6.452;2024-01-27T04:18:19;103130.44;;;1.59;100.00
54262;BME280;40174;52.364;6.452;2024-01-27T04:20:45;103128.72;;;1.58;100.00
54262;BME280;40174;52.364;6.452;2024-01-27T04:23:15;103119.19;;;1.52;100.00
54262;BME280;40174;52.364;6.452;2024-01-27T04:25:44;103120.94;;;1.50;100.00
54262;BME280;40174;52.364;6.452;2024-01-27T04:28:11;103121.84;;;1.46;100.00
54262;BME280;40174;52.364;6.452;2024-01-27T04:30:38;103133.94;;;1.59;100.00
54262;BME280;40174;52.364;6.452;2024-01-27T04:33:05;103133.06;;;1.59;100.00
54262;BME280;40174;52.364;6.452;2024-01-27T04:35:32;103123.50;;;1.56;100.00
54262;BME280;40174;52.364;6.452;2024-01-27T04:37:59;103132.19;;;1.58;100.00
54262;BME280;40174;52.364;6.452;2024-01-27T04:40:26;103123.53;;;1.52;100.00
54262;BME280;40174;52.364;6.452;2024-01-27T04:42:54;103118.34;;;1.55;100.00
54262;BME280;40174;52.364;6.452;2024-01-27T04:45:21;103124.41;;;1.52;100.00
54262;BME280;40174;52.364;6.452;2024-01-27T04:47:47;103111.34;;;1.58;100.00
54262;BME280;40174;52.364;6.452;2024-01-27T04:50:14;103120.88;;;1.62;100.00
54262;BME280;40174;52.364;6.452;2024-01-27T04:52:40;103120.91;;;1.58;100.00
54262;BME280;40174;52.364;6.452;2024-01-27T04:55:07;103113.13;;;1.52;100.00
54262;BME280;40174;52.364;6.452;2024-01-27T04:57:34;103107.06;;;1.43;100.00
54262;BME280;40174;52.364;6.452;2024-01-27T05:00:02;103120.09;;;1.47;100.00
54262;BME280;40174;52.364;6.452;2024-01-27T05:02:32;103114.03;;;1.44;100.00
54262;BME280;40174;52.364;6.452;2024-01-27T05:04:59;103113.16;;;1.49;100.00
54262;BME280;40174;52.364;6.452;2024-01-27T05:07:26;103106.22;;;1.43;100.00
54262;BME280;40174;52.364;6.452;2024-01-27T05:09:52;103109.72;;;1.40;100.00
54262;BME280;40174;52.364;6.452;2024-01-27T05:12:19;103121.00;;;1.38;100.00
54262;BME280;40174;52.364;6.452;2024-01-27T05:14:46;103112.31;;;1.39;100.00
54262;BME280;40174;52.364;6.452;2024-01-27T05:17:14;103111.47;;;1.37;100.00
54262;BME280;40174;52.364;6.452;2024-01-27T05:19:40;103112.34;;;1.36;100.00
54262;BME280;40174;52.364;6.452;2024-01-27T05:22:07;103113.16;;;1.42;100.00
54262;BME280;40174;52.364;6.452;2024-01-27T05:24:33;103100.16;;;1.38;100.00
54262;BME280;40174;52.364;6.452;2024-01-27T05:27:00;103116.69;;;1.34;100.00
54262;BME280;40174;52.364;6.452;2024-01-27T05:29:27;103112.34;;;1.30;100.00
54262;BME280;40174;52.364;6.452;2024-01-27T05:31:54;103110.66;;;1.29;100.00
54262;BME280;40174;52.364;6.452;2024-01-27T05:34:22;103109.81;;;1.23;100.00
54262;BME280;40174;52.364;6.452;2024-01-27T05:36:49;103120.19;;;1.31;100.00
54262;BME280;40174;52.364;6.452;2024-01-27T05:39:15;103117.56;;;1.30;100.00
54262;BME280;40174;52.364;6.452;2024-01-27T05:41:42;103124.59;;;1.21;100.00
54262;BME280;40174;52.364;6.452;2024-01-27T05:44:09;103119.34;;;1.23;100.00
54262;BME280;40174;52.364;6.452;2024-01-27T05:46:35;103106.34;;;1.21;100.00
54262;BME280;40174;52.364;6.452;2024-01-27T05:49:02;103115.00;;;1.20;100.00
54262;BME280;40174;52.364;6.452;2024-01-27T05:51:30;103119.38;;;1.20;100.00
54262;BME280;40174;52.364;6.452;2024-01-27T05:53:57;103107.22;;;1.17;100.00
54262;BME280;40174;52.364;6.452;2024-01-27T05:56:23;103116.75;;;1.20;100.00
54262;BME280;40174;52.364;6.452;2024-01-27T05:58:50;103118.50;;;1.18;100.00
54262;BME280;40174;52.364;6.452;2024-01-27T06:01:17;103115.03;;;1.19;100.00
54262;BME280;40174;52.364;6.452;2024-01-27T06:03:44;103122.00;;;1.17;100.00
54262;BME280;40174;52.364;6.452;2024-01-27T06:06:11;103122.84;;;1.17;100.00
54262;BME280;40174;52.364;6.452;2024-01-27T06:08:39;103120.25;;;1.14;100.00
54262;BME280;40174;52.364;6.452;2024-01-27T06:11:07;103119.41;;;1.09;100.00
54262;BME280;40174;52.364;6.452;2024-01-27T06:13:33;103125.47;;;1.13;100.00
54262;BME280;40174;52.364;6.452;2024-01-27T06:16:00;103124.63;;;1.11;100.00
54262;BME280;40174;52.364;6.452;2024-01-27T06:18:26;103131.53;;;1.12;100.00
54262;BME280;40174;52.364;6.452;2024-01-27T06:20:53;103135.03;;;1.08;100.00
54262;BME280;40174;52.364;6.452;2024-01-27T06:23:20;103134.19;;;1.10;100.00
54262;BME280;40174;52.364;6.452;2024-01-27T06:25:47;103136.75;;;1.12;100.00
54262;BME280;40174;52.364;6.452;2024-01-27T06:28:14;103135.03;;;1.08;100.00
54262;BME280;40174;52.364;6.452;2024-01-27T06:30:41;103144.63;;;1.06;100.00
54262;BME280;40174;52.364;6.452;2024-01-27T06:33:07;103141.13;;;1.05;100.00
54262;BME280;40174;52.364;6.452;2024-01-27T06:35:34;103148.97;;;1.02;100.00
54262;BME280;40174;52.364;6.452;2024-01-27T06:38:01;103143.72;;;1.05;100.00
54262;BME280;40174;52.364;6.452;2024-01-27T06:40:27;103148.06;;;1.08;100.00
54262;BME280;40174;52.364;6.452;2024-01-27T06:42:55;103148.06;;;1.03;100.00
54262;BME280;40174;52.364;6.452;2024-01-27T06:45:22;103147.22;;;1.02;100.00
54262;BME280;40174;52.364;6.452;2024-01-27T06:47:48;103146.34;;;1.00;100.00
54262;BME280;40174;52.364;6.452;2024-01-27T06:50:15;103146.34;;;1.02;100.00
54262;BME280;40174;52.364;6.452;2024-01-27T06:52:41;103162.88;;;0.99;100.00
54262;BME280;40174;52.364;6.452;2024-01-27T06:55:08;103150.69;;;1.03;100.00
54262;BME280;40174;52.364;6.452;2024-01-27T06:57:36;103159.38;;;1.02;100.00
54262;BME280;40174;52.364;6.452;2024-01-27T07:00:05;103165.44;;;1.02;100.00
54262;BME280;40174;52.364;6.452;2024-01-27T07:02:33;103162.88;;;0.95;100.00
54262;BME280;40174;52.364;6.452;2024-01-27T07:05:00;103166.34;;;0.95;100.00
54262;BME280;40174;52.364;6.452;2024-01-27T07:07:28;103163.75;;;0.97;100.00
54262;BME280;40174;52.364;6.452;2024-01-27T07:09:55;103162.88;;;0.95;100.00
54262;BME280;40174;52.364;6.452;2024-01-27T07:12:22;103165.47;;;0.93;100.00
54262;BME280;40174;52.364;6.452;2024-01-27T07:14:49;103170.69;;;0.87;100.00
54262;BME280;40174;52.364;6.452;2024-01-27T07:17:18;103173.28;;;0.92;100.00
54262;BME280;40174;52.364;6.452;2024-01-27T07:19:44;103168.94;;;0.89;100.00
54262;BME280;40174;52.364;6.452;2024-01-27T07:22:11;103170.69;;;0.90;100.00
54262;BME280;40174;52.364;6.452;2024-01-27T07:24:38;103168.97;;;0.85;100.00
54262;BME280;40174;52.364;6.452;2024-01-27T07:27:05;103165.50;;;0.84;100.00
54262;BME280;40174;52.364;6.452;2024-01-27T07:29:31;103164.66;;;0.83;100.00
54262;BME280;40174;52.364;6.452;2024-01-27T07:31:58;103162.88;;;0.89;100.00
54262;BME280;40174;52.364;6.452;2024-01-27T07:34:26;103161.16;;;0.86;100.00
54262;BME280;40174;52.364;6.452;2024-01-27T07:36:52;103164.63;;;0.82;100.00
54262;BME280;40174;52.364;6.452;2024-01-27T07:39:19;103175.06;;;0.82;100.00
54262;BME280;40174;52.364;6.452;2024-01-27T07:41:45;103181.13;;;0.84;100.00
54262;BME280;40174;52.364;6.452;2024-01-27T07:44:14;103176.81;;;0.83;100.00
54262;BME280;40174;52.364;6.452;2024-01-27T07:46:41;103174.19;;;0.80;100.00
54262;BME280;40174;52.364;6.452;2024-01-27T07:49:08;103179.41;;;0.83;100.00
54262;BME280;40174;52.364;6.452;2024-01-27T07:51:38;103179.38;;;0.78;100.00
54262;BME280;40174;52.364;6.452;2024-01-27T07:54:04;103184.59;;;0.80;100.00
54262;BME280;40174;52.364;6.452;2024-01-27T07:56:31;103188.06;;;0.83;100.00
54262;BME280;40174;52.364;6.452;2024-01-27T07:58:58;103195.00;;;0.78;100.00
54262;BME280;40174;52.364;6.452;2024-01-27T08:01:25;103182.84;;;0.80;100.00
54262;BME280;40174;52.364;6.452;2024-01-27T08:03:52;103180.28;;;0.79;100.00
54262;BME280;40174;52.364;6.452;2024-01-27T08:06:21;103180.28;;;0.79;100.00
54262;BME280;40174;52.364;6.452;2024-01-27T08:08:49;103181.13;;;0.84;100.00
54262;BME280;40174;52.364;6.452;2024-01-27T08:11:15;103188.94;;;0.86;100.00
54262;BME280;40174;52.364;6.452;2024-01-27T08:13:42;103182.84;;;0.87;100.00
54262;BME280;40174;52.364;6.452;2024-01-27T08:16:10;103197.63;;;0.86;100.00
54262;BME280;40174;52.364;6.452;2024-01-27T08:18:38;103199.34;;;0.93;100.00
54262;BME280;40174;52.364;6.452;2024-01-27T08:21:05;103201.06;;;0.93;100.00
54262;BME280;40174;52.364;6.452;2024-01-27T08:23:31;103199.34;;;0.93;100.00
54262;BME280;40174;52.364;6.452;2024-01-27T08:25:59;103201.09;;;0.94;100.00
54262;BME280;40174;52.364;6.452;2024-01-27T08:28:26;103202.81;;;0.92;100.00
54262;BME280;40174;52.364;6.452;2024-01-27T08:30:53;103202.78;;;0.94;100.00
54262;BME280;40174;52.364;6.452;2024-01-27T08:33:19;103199.34;;;0.93;100.00
54262;BME280;40174;52.364;6.452;2024-01-27T08:35:46;103195.84;;;0.99;100.00
54262;BME280;40174;52.364;6.452;2024-01-27T08:38:13;103208.88;;;0.96;100.00
54262;BME280;40174;52.364;6.452;2024-01-27T08:40:40;103202.81;;;0.97;100.00
54262;BME280;40174;52.364;6.452;2024-01-27T08:43:08;103206.25;;;1.00;100.00
54262;BME280;40174;52.364;6.452;2024-01-27T08:45:36;103208.88;;;1.03;100.00
54262;BME280;40174;52.364;6.452;2024-01-27T08:48:03;103202.78;;;1.12;100.00
54262;BME280;40174;52.364;6.452;2024-01-27T08:50:30;103219.25;;;1.11;100.00
54262;BME280;40174;52.364;6.452;2024-01-27T08:52:56;103215.81;;;1.12;100.00
54262;BME280;40174;52.364;6.452;2024-01-27T08:55:23;103214.88;;;1.16;100.00
54262;BME280;40174;52.364;6.452;2024-01-27T08:57:49;103220.97;;;1.24;100.00
54262;BME280;40174;52.364;6.452;2024-01-27T09:00:18;103219.22;;;1.22;100.00
54262;BME280;40174;52.364;6.452;2024-01-27T09:02:45;103227.06;;;1.23;100.00
54262;BME280;40174;52.364;6.452;2024-01-27T09:05:12;103234.00;;;1.26;100.00
54262;BME280;40174;52.364;6.452;2024-01-27T09:07:39;103233.06;;;1.36;100.00
54262;BME280;40174;52.364;6.452;2024-01-27T09:10:06;103240.88;;;1.41;100.00
54262;BME280;40174;52.364;6.452;2024-01-27T09:12:33;103247.81;;;1.48;100.00
54262;BME280;40174;52.364;6.452;2024-01-27T09:15:00;103253.00;;;1.53;100.00
54262;BME280;40174;52.364;6.452;2024-01-27T09:17:28;103249.50;;;1.58;100.00
54262;BME280;40174;52.364;6.452;2024-01-27T09:19:55;103250.34;;;1.59;100.00
54262;BME280;40174;52.364;6.452;2024-01-27T09:22:21;103238.16;;;1.67;100.00
54262;BME280;40174;52.364;6.452;2024-01-27T09:24:48;103220.81;;;1.66;100.00
54262;BME280;40174;52.364;6.452;2024-01-27T09:27:15;103225.13;;;1.65;100.00
54262;BME280;40174;52.364;6.452;2024-01-27T09:29:42;103228.59;;;1.71;100.00
54262;BME280;40174;52.364;6.452;2024-01-27T09:32:09;103226.00;;;1.69;100.00
54262;BME280;40174;52.364;6.452;2024-01-27T09:34:37;103226.00;;;1.71;100.00
54262;BME280;40174;52.364;6.452;2024-01-27T09:37:04;103230.31;;;1.70;100.00
54262;BME280;40174;52.364;6.452;2024-01-27T09:39:31;103233.78;;;1.75;100.00
54262;BME280;40174;52.364;6.452;2024-01-27T09:41:59;103229.41;;;1.79;100.00
54262;BME280;40174;52.364;6.452;2024-01-27T09:44:31;103234.66;;;1.77;100.00
54262;BME280;40174;52.364;6.452;2024-01-27T09:46:58;103251.06;;;1.95;100.00
54262;BME280;40174;52.364;6.452;2024-01-27T09:49:26;103249.28;;;2.01;100.00
54262;BME280;40174;52.364;6.452;2024-01-27T09:51:54;103254.50;;;2.04;100.00
54262;BME280;40174;52.364;6.452;2024-01-27T09:54:22;103250.97;;;2.12;100.00
54262;BME280;40174;52.364;6.452;2024-01-27T09:56:49;103253.53;;;2.22;100.00
54262;BME280;40174;52.364;6.452;2024-01-27T09:59:17;103250.88;;;2.25;100.00
54262;BME280;40174;52.364;6.452;2024-01-27T10:01:45;103243.00;;;2.32;100.00
54262;BME280;40174;52.364;6.452;2024-01-27T10:04:13;103249.03;;;2.41;100.00
54262;BME280;40174;52.364;6.452;2024-01-27T10:06:40;103253.31;;;2.48;100.00
54262;BME280;40174;52.364;6.452;2024-01-27T10:09:08;103255.88;;;2.55;100.00
54262;BME280;40174;52.364;6.452;2024-01-27T10:11:36;103255.81;;;2.65;100.00
54262;BME280;40174;52.364;6.452;2024-01-27T10:14:06;103251.34;;;2.75;100.00
54262;BME280;40174;52.364;6.452;2024-01-27T10:16:40;103247.00;;;2.76;100.00
54262;BME280;40174;52.364;6.452;2024-01-27T10:19:12;103259.16;;;2.81;100.00
54262;BME280;40174;52.364;6.452;2024-01-27T10:21:39;103256.50;;;2.86;100.00
54262;BME280;40174;52.364;6.452;2024-01-27T10:24:06;103261.63;;;2.95;100.00
54262;BME280;40174;52.364;6.452;2024-01-27T10:26:34;103267.63;;;3.05;100.00
54262;BME280;40174;52.364;6.452;2024-01-27T10:29:01;103262.34;;;3.12;100.00
54262;BME280;40174;52.364;6.452;2024-01-27T10:31:28;103269.16;;;3.23;100.00
54262;BME280;40174;52.364;6.452;2024-01-27T10:33:56;103267.38;;;3.29;100.00
54262;BME280;40174;52.364;6.452;2024-01-27T10:36:23;103266.44;;;3.35;100.00
54262;BME280;40174;52.364;6.452;2024-01-27T10:38:49;103263.66;;;3.49;100.00
54262;BME280;40174;52.364;6.452;2024-01-27T10:41:22;103267.03;;;3.59;100.00
54262;BME280;40174;52.364;6.452;2024-01-27T10:43:51;103262.50;;;3.73;100.00
54262;BME280;40174;52.364;6.452;2024-01-27T10:46:19;103264.16;;;3.80;100.00
54262;BME280;40174;52.364;6.452;2024-01-27T10:48:50;103263.25;;;3.83;100.00
54262;BME280;40174;52.364;6.452;2024-01-27T10:51:23;103262.31;;;3.88;100.00
54262;BME280;40174;52.364;6.452;2024-01-27T10:53:56;103266.38;;;4.09;100.00
54262;BME280;40174;52.364;6.452;2024-01-27T10:56:27;103263.75;;;4.09;100.00
54262;BME280;40174;52.364;6.452;2024-01-27T10:58:57;103265.38;;;4.18;100.00
54262;BME280;40174;52.364;6.452;2024-01-27T11:01:24;103269.63;;;4.25;100.00
54262;BME280;40174;52.364;6.452;2024-01-27T11:03:52;103267.84;;;4.29;100.00
54262;BME280;40174;52.364;6.452;2024-01-27T11:06:21;103271.97;;;4.44;100.00
54262;BME280;40174;52.364;6.452;2024-01-27T11:08:49;103265.88;;;4.43;100.00
54262;BME280;40174;52.364;6.452;2024-01-27T11:11:16;103270.03;;;4.55;100.00
54262;BME280;40174;52.364;6.452;2024-01-27T11:13:47;103277.63;;;4.73;100.00
54262;BME280;40174;52.364;6.452;2024-01-27T11:16:18;103270.53;;;4.80;100.00
54262;BME280;40174;52.364;6.452;2024-01-27T11:18:45;103271.38;;;4.81;100.00
54262;BME280;40174;52.364;6.452;2024-01-27T11:21:13;103265.03;;;4.94;100.00
54262;BME280;40174;52.364;6.452;2024-01-27T11:23:41;103257.81;;;5.07;100.00
54262;BME280;40174;52.364;6.452;2024-01-27T11:26:09;103259.38;;;5.15;100.00
54262;BME280;40174;52.364;6.452;2024-01-27T11:28:38;103253.16;;;5.21;100.00
54262;BME280;40174;52.364;6.452;2024-01-27T11:31:07;103263.28;;;5.39;100.00
54262;BME280;40174;52.364;6.452;2024-01-27T11:33:41;103271.16;;;5.39;100.00
54262;BME280;40174;52.364;6.452;2024-01-27T11:36:18;103267.59;;;5.44;100.00
54262;BME280;40174;52.364;6.452;2024-01-27T11:38:45;103275.25;;;5.54;100.00
54262;BME280;40174;52.364;6.452;2024-01-27T11:41:11;103269.91;;;5.59;100.00
54262;BME280;40174;52.364;6.452;2024-01-27T11:43:38;103255.69;;;5.69;100.00
54262;BME280;40174;52.364;6.452;2024-01-27T11:46:05;103266.88;;;5.79;100.00
54262;BME280;40174;52.364;6.452;2024-01-27T11:48:42;103267.31;;;6.01;100.00
54262;BME280;40174;52.364;6.452;2024-01-27T11:51:11;103265.44;;;6.06;100.00
54262;BME280;40174;52.364;6.452;2024-01-27T11:53:38;103267.53;;;6.29;100.00
54262;BME280;40174;52.364;6.452;2024-01-27T11:56:05;103269.88;;;6.41;100.00
54262;BME280;40174;52.364;6.452;2024-01-27T11:58:32;103266.00;;;6.56;100.00
54262;BME280;40174;52.364;6.452;2024-01-27T12:00:59;103268.56;;;6.59;100.00
54262;BME280;40174;52.364;6.452;2024-01-27T12:03:26;103269.16;;;6.71;100.00
54262;BME280;40174;52.364;6.452;2024-01-27T12:05:55;103277.06;;;6.69;100.00
54262;BME280;40174;52.364;6.452;2024-01-27T12:08:22;103275.06;;;6.79;100.00
54262;BME280;40174;52.364;6.452;2024-01-27T12:10:49;103276.56;;;6.89;100.00
54262;BME280;40174;52.364;6.452;2024-01-27T12:13:15;103274.88;;;7.19;100.00
54262;BME280;40174;52.364;6.452;2024-01-27T12:15:43;103274.28;;;7.41;100.00
54262;BME280;40174;52.364;6.452;2024-01-27T12:18:11;103275.09;;;7.44;100.00
54262;BME280;40174;52.364;6.452;2024-01-27T12:20:38;103274.97;;;7.49;100.00
54262;BME280;40174;52.364;6.452;2024-01-27T12:23:07;103279.72;;;7.66;100.00
54262;BME280;40174;52.364;6.452;2024-01-27T12:25:34;103278.03;;;7.93;100.00
54262;BME280;40174;52.364;6.452;2024-01-27T12:28:05;103281.97;;;8.08;100.00
54262;BME280;40174;52.364;6.452;2024-01-27T12:30:33;103291.56;;;8.10;100.00
54262;BME280;40174;52.364;6.452;2024-01-27T12:33:00;103287.94;;;8.15;100.00
54262;BME280;40174;52.364;6.452;2024-01-27T12:35:27;103280.59;;;8.24;100.00
54262;BME280;40174;52.364;6.452;2024-01-27T12:37:55;103272.34;;;8.35;100.00
54262;BME280;40174;52.364;6.452;2024-01-27T12:40:23;103267.59;;;8.48;100.00
54262;BME280;40174;52.364;6.452;2024-01-27T12:42:50;103270.38;;;8.43;100.00
54262;BME280;40174;52.364;6.452;2024-01-27T12:45:17;103260.19;;;8.59;100.00
54262;BME280;40174;52.364;6.452;2024-01-27T12:47:44;103263.63;;;8.88;100.00
54262;BME280;40174;52.364;6.452;2024-01-27T12:50:11;103265.59;;;9.06;100.00